Terminal Aerodrome Forecast
Issued by NWS

Home | Current Version | Previous Version | Text Only | Print | Product List | Glossary On
Versions: 1 2 3 4 5 6 7 8 9 10 11 12 13 14 15 16 17 18 19 20 21 22 23 24 25 26 27 28 29 30 31 32 33 34 35 36 37 38
699
FTUS43 KGRB 271721
TAFRHI
TAF
KRHI 271721Z 2718/2818 23007KT P6SM SCT050 BKN110
     FM280600 VRB03KT P6SM VCSH BKN040
     FM281100 VRB03KT P6SM -SHRA OVC040
     FM281400 23003KT P6SM -SHRA BKN080
      TEMPO 2814/2818 4SM -SHRA OVC025=

USA.gov is the U.S. government's official web portal to all federal, state and local government web resources and services.